createdAt,value
2023-04-12T00:01:34.364Z,51.58
2023-04-12T00:04:04.829Z,51.61
2023-04-12T00:06:33.401Z,51.58
2023-04-12T00:09:00.754Z,51.38
2023-04-12T00:11:28.852Z,51.29
2023-04-12T00:13:56.225Z,51.46
2023-04-12T00:16:23.525Z,51.57
2023-04-12T00:18:51.881Z,51.70
2023-04-12T00:21:19.988Z,51.49
2023-04-12T00:23:47.838Z,51.58
2023-04-12T00:26:15.016Z,51.33
2023-04-12T00:28:42.544Z,51.49
2023-04-12T00:31:09.610Z,51.42
2023-04-12T00:33:36.593Z,51.41
2023-04-12T00:36:03.757Z,51.39
2023-04-12T00:38:30.728Z,51.29
2023-04-12T00:40:58.005Z,51.23
2023-04-12T00:43:28.037Z,51.35
2023-04-12T00:45:58.148Z,51.54
2023-04-12T00:48:25.236Z,51.41
2023-04-12T00:50:55.843Z,51.41
2023-04-12T00:53:23.919Z,51.58
2023-04-12T00:55:51.704Z,51.24
2023-04-12T00:58:19.076Z,51.38
2023-04-12T01:00:50.659Z,51.17
2023-04-12T01:03:23.814Z,51.21
2023-04-12T01:05:56.099Z,51.07
2023-04-12T01:08:26.442Z,51.18
2023-04-12T01:10:56.556Z,51.16
2023-04-12T01:13:24.833Z,51.34
2023-04-12T01:15:58.561Z,51.03
2023-04-12T01:18:28.452Z,50.76
2023-04-12T01:20:58.112Z,51.00
2023-04-12T01:23:28.803Z,50.86
2023-04-12T01:25:59.163Z,50.69
2023-04-12T01:28:29.574Z,51.00
2023-04-12T01:30:56.685Z,50.73
2023-04-12T01:33:24.617Z,50.67
2023-04-12T01:35:52.117Z,50.65
2023-04-12T01:38:19.553Z,50.77
2023-04-12T01:40:46.600Z,50.79
2023-04-12T01:43:16.258Z,50.83
2023-04-12T01:45:43.486Z,50.41
2023-04-12T01:48:11.362Z,50.23
2023-04-12T01:50:41.467Z,50.41
2023-04-12T01:53:11.536Z,50.31
2023-04-12T01:55:40.112Z,50.21
2023-04-12T01:58:08.157Z,50.14
2023-04-12T02:00:37.372Z,50.40
2023-04-12T02:03:06.104Z,50.31
2023-04-12T02:05:34.642Z,50.49
2023-04-12T02:08:02.965Z,50.20
2023-04-12T02:10:30.909Z,50.35
2023-04-12T02:12:59.528Z,49.99
2023-04-12T02:15:27.651Z,50.35
2023-04-12T02:17:55.017Z,50.13
2023-04-12T02:20:22.780Z,49.80
2023-04-12T02:22:52.090Z,50.15
2023-04-12T02:25:20.630Z,50.03
2023-04-12T02:27:49.027Z,49.68
2023-04-12T02:30:16.214Z,49.79
2023-04-12T02:32:44.523Z,49.82
2023-04-12T02:35:12.669Z,49.95
2023-04-12T02:37:39.614Z,49.69
2023-04-12T02:40:07.427Z,49.97
2023-04-12T02:42:34.409Z,49.64
2023-04-12T02:45:01.410Z,49.81
2023-04-12T02:47:29.632Z,49.78
2023-04-12T02:49:56.829Z,49.85
2023-04-12T02:52:23.755Z,49.55
2023-04-12T02:54:51.516Z,49.41
2023-04-12T02:57:18.446Z,49.57
2023-04-12T02:59:45.350Z,49.71
2023-04-12T03:02:12.360Z,49.55
2023-04-12T03:04:40.367Z,49.29
2023-04-12T03:07:07.396Z,49.45
2023-04-12T03:09:35.129Z,49.43
2023-04-12T03:12:02.513Z,49.35
2023-04-12T03:14:29.430Z,49.52
2023-04-12T03:16:56.808Z,49.42
2023-04-12T03:19:23.827Z,49.39
2023-04-12T03:21:51.467Z,49.22
2023-04-12T03:24:18.395Z,49.62
2023-04-12T03:26:45.338Z,49.14
2023-04-12T03:29:12.266Z,49.26
2023-04-12T03:31:39.333Z,49.27
2023-04-12T03:34:07.115Z,49.35
2023-04-12T03:36:34.172Z,49.32
2023-04-12T03:39:01.212Z,49.16
2023-04-12T03:41:28.894Z,49.51
2023-04-12T03:43:56.009Z,48.98
2023-04-12T03:46:23.175Z,49.21
2023-04-12T03:48:50.404Z,49.30
2023-04-12T03:51:17.313Z,49.06
2023-04-12T03:53:44.226Z,49.19
2023-04-12T03:56:12.869Z,49.22
2023-04-12T03:58:40.126Z,49.22
2023-04-12T04:01:07.279Z,49.11
2023-04-12T04:03:35.445Z,49.25
2023-04-12T04:06:02.809Z,49.31
2023-04-12T04:08:30.198Z,49.04
2023-04-12T04:10:57.659Z,49.10
2023-04-12T04:13:24.615Z,49.14
2023-04-12T04:15:52.379Z,49.04
2023-04-12T04:18:19.375Z,48.96
2023-04-12T04:20:46.341Z,49.03
2023-04-12T04:23:13.200Z,49.01
2023-04-12T04:25:40.368Z,49.12
2023-04-12T04:28:08.081Z,49.09
2023-04-12T04:30:39.244Z,48.83
2023-04-12T04:33:07.490Z,48.87
2023-04-12T04:35:34.529Z,48.83
2023-04-12T04:38:01.919Z,48.89
2023-04-12T04:40:29.229Z,48.85
2023-04-12T04:42:56.298Z,48.73
2023-04-12T04:45:26.852Z,48.67
2023-04-12T04:47:54.137Z,48.56
2023-04-12T04:50:23.183Z,48.62
2023-04-12T04:52:51.316Z,48.86
2023-04-12T04:55:18.706Z,48.74
2023-04-12T04:57:45.789Z,48.75
2023-04-12T05:00:14.410Z,48.81
2023-04-12T05:02:43.189Z,48.57
2023-04-12T05:05:11.083Z,48.63
2023-04-12T05:07:38.940Z,48.53
2023-04-12T05:10:06.471Z,48.81
2023-04-12T05:12:34.438Z,48.64
2023-04-12T05:17:32.332Z,48.72
2023-04-12T05:19:59.635Z,48.29
2023-04-12T05:22:27.088Z,48.30
2023-04-12T05:24:53.988Z,48.43
2023-04-12T05:27:21.097Z,48.38
2023-04-12T05:29:48.085Z,48.23
2023-04-12T05:32:15.082Z,48.32
2023-04-12T05:34:42.640Z,48.54
2023-04-12T05:37:09.686Z,48.23
2023-04-12T05:39:36.709Z,48.23
2023-04-12T05:42:03.751Z,48.44
2023-04-12T05:44:30.755Z,48.13
2023-04-12T05:46:57.660Z,48.35
2023-04-12T05:49:24.580Z,48.51
2023-04-12T05:51:51.476Z,48.13
2023-04-12T05:54:21.423Z,48.04
2023-04-12T05:56:48.427Z,48.17
2023-04-12T05:59:15.329Z,48.19
2023-04-12T06:01:44.987Z,48.22
2023-04-12T06:04:12.227Z,48.11
2023-04-12T06:06:39.358Z,48.25
2023-04-12T06:09:06.375Z,47.94
2023-04-12T06:11:34.372Z,48.10
2023-04-12T06:14:01.793Z,47.85
2023-04-12T06:16:28.929Z,47.91
2023-04-12T06:18:56.339Z,48.36
2023-04-12T06:21:23.606Z,48.01
2023-04-12T06:23:50.557Z,47.89
2023-04-12T06:26:18.571Z,48.06
2023-04-12T06:28:46.019Z,47.84
2023-04-12T06:31:13.221Z,48.02
2023-04-12T06:33:40.197Z,47.86
2023-04-12T06:36:07.642Z,47.93
2023-04-12T06:38:34.725Z,48.01
2023-04-12T06:41:01.897Z,47.99
2023-04-12T06:43:29.050Z,47.87
2023-04-12T06:45:57.441Z,47.97
2023-04-12T06:48:24.622Z,47.64
2023-04-12T06:50:51.541Z,47.70
2023-04-12T06:53:18.559Z,47.88
2023-04-12T06:55:45.675Z,47.54
2023-04-12T06:58:12.718Z,47.94
2023-04-12T07:00:39.889Z,47.72
2023-04-12T07:03:07.201Z,47.42
2023-04-12T07:05:34.392Z,47.51
2023-04-12T07:08:01.561Z,47.63
2023-04-12T07:10:28.694Z,47.36
2023-04-12T07:12:55.993Z,47.54
2023-04-12T07:15:22.939Z,47.63
2023-04-12T07:17:50.072Z,47.38
2023-04-12T07:20:18.054Z,47.44
2023-04-12T07:22:45.262Z,47.22
2023-04-12T07:25:12.671Z,47.73
2023-04-12T07:27:39.984Z,47.58
2023-04-12T07:30:07.711Z,47.54
2023-04-12T07:32:34.820Z,47.45
2023-04-12T07:35:02.194Z,47.43
2023-04-12T07:37:29.217Z,47.47
2023-04-12T07:39:56.329Z,47.56
2023-04-12T07:42:23.466Z,47.27
2023-04-12T07:44:51.036Z,47.32
2023-04-12T07:47:17.979Z,47.65
2023-04-12T07:49:45.129Z,47.55
2023-04-12T07:52:12.179Z,47.44
2023-04-12T07:54:39.358Z,47.62
2023-04-12T07:57:06.631Z,47.45
2023-04-12T07:59:34.642Z,47.40
2023-04-12T08:02:03.461Z,47.64
2023-04-12T08:04:30.886Z,47.44
2023-04-12T08:06:58.007Z,47.49
2023-04-12T08:09:25.283Z,47.37
2023-04-12T08:11:52.609Z,47.39
2023-04-12T08:14:23.632Z,47.09
2023-04-12T08:16:51.148Z,47.11
2023-04-12T08:19:19.053Z,46.87
2023-04-12T08:21:51.884Z,46.94
2023-04-12T08:24:20.336Z,46.74
2023-04-12T08:26:47.424Z,46.67
2023-04-12T08:29:14.698Z,46.79
2023-04-12T08:31:42.589Z,46.91
2023-04-12T08:34:11.184Z,46.79
2023-04-12T08:36:44.601Z,46.56
2023-04-12T08:39:15.609Z,46.45
2023-04-12T08:41:43.642Z,46.37
2023-04-12T08:44:11.833Z,46.22
2023-04-12T08:46:39.016Z,46.33
2023-04-12T08:49:06.198Z,46.32
2023-04-12T08:51:34.770Z,46.36
2023-04-12T08:54:01.858Z,46.16
2023-04-12T08:56:29.926Z,46.45
2023-04-12T08:58:58.136Z,46.23
2023-04-12T09:01:26.223Z,46.05
2023-04-12T09:03:53.500Z,46.20
2023-04-12T09:06:21.111Z,45.99
2023-04-12T09:08:51.333Z,45.83
2023-04-12T09:11:21.510Z,45.79
2023-04-12T09:13:48.648Z,45.73
2023-04-12T09:16:15.918Z,45.88
2023-04-12T09:18:46.223Z,45.72
2023-04-12T09:21:14.559Z,45.94
2023-04-12T09:23:41.595Z,46.00
2023-04-12T09:26:09.793Z,45.92
2023-04-12T09:28:37.121Z,45.49
2023-04-12T09:31:05.236Z,45.55
2023-04-12T09:33:41.247Z,45.92
2023-04-12T09:36:13.950Z,45.90
2023-04-12T09:38:43.520Z,45.96
2023-04-12T09:41:15.027Z,45.74
2023-04-12T09:43:42.095Z,45.99
2023-04-12T09:46:12.262Z,46.07
2023-04-12T09:48:41.208Z,46.03
2023-04-12T09:51:09.048Z,45.65
2023-04-12T09:53:39.620Z,45.73
2023-04-12T09:56:08.845Z,45.61
2023-04-12T09:58:37.175Z,45.81
2023-04-12T10:01:06.032Z,45.56
2023-04-12T10:03:34.284Z,45.71
2023-04-12T10:06:04.023Z,45.67
2023-04-12T10:08:40.768Z,45.69
2023-04-12T10:11:08.053Z,45.52
2023-04-12T10:13:36.026Z,45.74
2023-04-12T10:16:05.936Z,45.58
2023-04-12T10:18:36.116Z,45.19
2023-04-12T10:21:04.116Z,45.48
2023-04-12T10:23:34.447Z,45.40
2023-04-12T10:26:03.109Z,45.41
2023-04-12T10:28:31.289Z,44.89
2023-04-12T10:30:58.748Z,44.92
2023-04-12T10:33:27.085Z,44.58
2023-04-12T10:35:55.332Z,44.67
2023-04-12T10:38:25.702Z,44.55
2023-04-12T10:40:55.990Z,44.87
2023-04-12T10:43:23.858Z,44.61
2023-04-12T10:45:51.382Z,44.59
2023-04-12T10:48:21.632Z,44.48
2023-04-12T10:50:48.792Z,44.45
2023-04-12T10:53:20.211Z,44.29
2023-04-12T10:55:47.612Z,44.13
2023-04-12T10:58:17.756Z,43.93
2023-04-12T11:00:58.201Z,44.00
2023-04-12T11:03:26.273Z,43.59
2023-04-12T11:05:56.943Z,43.41
2023-04-12T11:08:24.654Z,43.30
2023-04-12T11:10:52.017Z,43.46
2023-04-12T11:13:21.035Z,43.41
2023-04-12T11:15:53.978Z,43.08
2023-04-12T11:18:22.826Z,43.29
2023-04-12T11:20:53.234Z,43.00
2023-04-12T11:23:20.872Z,43.04
2023-04-12T11:25:52.632Z,43.07
2023-04-12T11:28:28.681Z,42.56
2023-04-12T11:30:58.272Z,42.33
2023-04-12T11:33:28.841Z,42.46
2023-04-12T11:35:56.390Z,42.42
2023-04-12T11:38:24.052Z,42.24
2023-04-12T11:40:52.034Z,41.95
2023-04-12T11:43:20.782Z,42.15
2023-04-12T11:45:48.819Z,42.26
2023-04-12T11:48:18.344Z,42.24
2023-04-12T11:50:51.858Z,42.17
2023-04-12T11:53:27.984Z,42.21
2023-04-12T11:55:57.000Z,42.24
2023-04-12T11:58:27.081Z,42.01
2023-04-12T12:00:55.644Z,42.20
2023-04-12T12:03:27.640Z,42.13
2023-04-12T12:05:55.653Z,41.94
2023-04-12T12:08:25.150Z,42.30
2023-04-12T12:11:07.306Z,42.04
2023-04-12T12:13:39.816Z,42.01
2023-04-12T12:16:09.012Z,42.11
2023-04-12T12:18:40.563Z,42.55
2023-04-12T12:21:10.515Z,42.51
2023-04-12T12:23:37.998Z,42.50
2023-04-12T12:26:18.542Z,42.42
2023-04-12T12:28:50.356Z,42.78
2023-04-12T12:31:20.694Z,42.77
2023-04-12T12:33:48.260Z,42.93
2023-04-12T12:36:19.011Z,42.57
2023-04-12T12:38:46.420Z,43.03
2023-04-12T12:41:17.412Z,42.68
2023-04-12T12:43:46.832Z,42.82
2023-04-12T12:46:15.035Z,42.60
2023-04-12T12:48:42.978Z,42.81
2023-04-12T12:51:11.203Z,43.02
2023-04-12T12:53:39.256Z,42.92
2023-04-12T12:56:07.504Z,42.89
2023-04-12T12:58:35.242Z,42.93
2023-04-12T13:01:03.156Z,43.16
2023-04-12T13:03:31.145Z,43.57
2023-04-12T13:05:58.733Z,43.69
2023-04-12T13:08:26.755Z,43.51
2023-04-12T13:10:54.438Z,43.73
2023-04-12T13:13:22.238Z,43.61
2023-04-12T13:15:49.840Z,44.01
2023-04-12T13:18:17.410Z,43.58
2023-04-12T13:20:44.736Z,43.91
2023-04-12T13:23:12.169Z,43.67
2023-04-12T13:25:39.731Z,44.11
2023-04-12T13:28:07.236Z,44.16
2023-04-12T13:30:34.488Z,44.21
2023-04-12T13:33:02.102Z,44.35
2023-04-12T13:35:29.544Z,44.25
2023-04-12T13:37:56.996Z,44.15
2023-04-12T13:40:26.090Z,44.53
2023-04-12T13:42:53.474Z,44.49
2023-04-12T13:45:21.672Z,44.38
2023-04-12T13:47:48.882Z,44.48
2023-04-12T13:50:17.704Z,44.49
2023-04-12T13:52:44.980Z,44.48
2023-04-12T13:55:12.343Z,44.26
2023-04-12T13:57:40.098Z,44.75
2023-04-12T14:00:08.399Z,44.28
2023-04-12T14:02:36.015Z,44.60
2023-04-12T14:05:03.522Z,44.39
2023-04-12T14:07:31.012Z,44.49
2023-04-12T14:09:58.375Z,44.70
2023-04-12T14:12:26.037Z,44.48
2023-04-12T14:14:53.251Z,44.48
2023-04-12T14:17:20.720Z,44.78
2023-04-12T14:19:47.970Z,44.71
2023-04-12T14:22:15.312Z,44.74
2023-04-12T14:24:42.496Z,44.48
2023-04-12T14:27:09.828Z,44.42
2023-04-12T14:29:38.231Z,44.62
2023-04-12T14:32:05.696Z,44.35
2023-04-12T14:34:33.056Z,44.38
2023-04-12T14:37:00.930Z,44.79
2023-04-12T14:39:28.436Z,44.47
2023-04-12T14:41:57.693Z,44.67
2023-04-12T14:44:26.359Z,44.96
2023-04-12T14:46:53.947Z,44.64
2023-04-12T14:49:21.257Z,45.07
2023-04-12T14:51:48.634Z,45.12
2023-04-12T14:54:16.302Z,45.00
2023-04-12T14:56:52.151Z,44.83
2023-04-12T14:59:21.421Z,45.01
2023-04-12T15:01:49.084Z,44.93
2023-04-12T15:04:21.604Z,45.04
2023-04-12T15:06:49.319Z,45.17
2023-04-12T15:09:18.058Z,45.24
2023-04-12T15:11:47.494Z,45.04
2023-04-12T15:14:18.036Z,45.04
2023-04-12T15:16:47.745Z,45.11
2023-04-12T15:19:21.233Z,45.06
2023-04-12T15:21:51.760Z,45.30
2023-04-12T15:24:19.834Z,45.10
2023-04-12T15:26:48.915Z,45.39
2023-04-12T15:29:17.895Z,45.43
2023-04-12T15:31:45.869Z,45.42
2023-04-12T15:34:14.238Z,45.29
2023-04-12T15:36:43.699Z,45.28
2023-04-12T15:39:11.818Z,45.38
2023-04-12T15:41:40.459Z,45.56
2023-04-12T15:44:11.670Z,45.75
2023-04-12T15:46:40.360Z,45.55
2023-04-12T15:49:07.855Z,45.62
2023-04-12T15:51:36.144Z,45.59
2023-04-12T15:54:20.063Z,45.63
2023-04-12T15:56:47.331Z,45.82
2023-04-12T15:59:15.275Z,45.59
2023-04-12T16:01:43.043Z,45.29
2023-04-12T16:04:11.778Z,45.40
2023-04-12T16:06:48.373Z,45.54
2023-04-12T16:09:16.241Z,45.71
2023-04-12T16:11:45.111Z,45.60
2023-04-12T16:14:14.079Z,45.71
2023-04-12T16:16:42.261Z,45.57
2023-04-12T16:19:11.196Z,45.49
2023-04-12T16:21:50.156Z,45.82
2023-04-12T16:24:18.842Z,45.75
2023-04-12T16:26:47.802Z,45.59
2023-04-12T16:29:15.811Z,45.83
2023-04-12T16:31:44.149Z,45.77
2023-04-12T16:34:13.449Z,45.80
2023-04-12T16:36:44.623Z,45.42
2023-04-12T16:39:14.547Z,45.60
2023-04-12T16:41:43.113Z,45.48
2023-04-12T16:44:12.595Z,45.92
2023-04-12T16:46:48.046Z,45.80
2023-04-12T16:49:18.322Z,45.66
2023-04-12T16:51:48.756Z,45.63
2023-04-12T16:54:17.015Z,45.82
2023-04-12T16:56:44.861Z,46.03
2023-04-12T16:59:21.875Z,45.97
2023-04-12T17:04:48.387Z,45.55
2023-04-12T17:07:51.981Z,45.88
2023-04-12T17:10:30.081Z,45.70
2023-04-12T17:13:41.963Z,45.72
2023-04-12T17:16:11.675Z,46.04
2023-04-12T17:18:54.192Z,46.11
2023-04-12T17:21:23.345Z,46.30
2023-04-12T17:23:51.237Z,46.34
2023-04-12T17:26:44.046Z,46.34
2023-04-12T17:29:12.857Z,46.40
2023-04-12T17:31:55.088Z,46.30
2023-04-12T17:34:34.375Z,46.51
2023-04-12T17:37:16.914Z,46.46
2023-04-12T17:39:57.685Z,46.21
2023-04-12T17:42:29.470Z,46.47
2023-04-12T17:45:04.984Z,46.29
2023-04-12T17:47:35.767Z,46.55
2023-04-12T17:50:06.686Z,46.48
2023-04-12T17:52:53.668Z,46.65
2023-04-12T17:55:39.625Z,46.53
2023-04-12T17:58:08.513Z,46.78
2023-04-12T18:00:37.462Z,46.59
2023-04-12T18:06:34.272Z,46.67
2023-04-12T18:09:16.756Z,46.75
2023-04-12T18:12:28.337Z,46.93
2023-04-12T18:15:06.039Z,46.92
2023-04-12T18:20:30.657Z,47.09
2023-04-12T18:26:15.232Z,46.85
2023-04-12T18:28:50.763Z,47.12
2023-04-12T18:31:27.003Z,46.82
2023-04-12T18:34:03.357Z,46.79
2023-04-12T18:36:33.976Z,47.17
2023-04-12T18:39:07.068Z,47.03
2023-04-12T18:41:35.261Z,47.05
2023-04-12T18:44:03.891Z,46.93
2023-04-12T18:46:31.913Z,47.20
2023-04-12T18:49:00.605Z,47.11
2023-04-12T18:51:30.696Z,47.22
2023-04-12T18:54:18.979Z,47.04
2023-04-12T18:56:46.848Z,46.87
2023-04-12T18:59:25.516Z,47.36
2023-04-12T19:01:53.413Z,47.10
2023-04-12T19:04:20.992Z,47.13
2023-04-12T19:06:49.003Z,47.03
2023-04-12T19:09:17.442Z,47.04
2023-04-12T19:11:44.864Z,47.16
2023-04-12T19:14:12.518Z,47.13
2023-04-12T19:16:40.135Z,47.19
2023-04-12T19:19:07.794Z,47.22
2023-04-12T19:21:36.112Z,47.25
2023-04-12T19:24:04.167Z,47.29
2023-04-12T19:26:32.502Z,47.33
2023-04-12T19:29:00.725Z,47.12
2023-04-12T19:31:28.546Z,46.99
2023-04-12T19:33:56.830Z,47.12
2023-04-12T19:36:25.126Z,47.08
2023-04-12T19:38:53.399Z,47.42
2023-04-12T19:41:22.021Z,47.49
2023-04-12T19:43:51.025Z,47.34
2023-04-12T19:46:18.983Z,47.49
2023-04-12T19:48:47.039Z,47.28
2023-04-12T19:51:15.813Z,47.44
2023-04-12T19:53:43.758Z,47.70
2023-04-12T19:56:13.399Z,47.75
2023-04-12T19:58:42.113Z,47.67
2023-04-12T20:01:10.404Z,47.88
2023-04-12T20:03:39.383Z,47.66
2023-04-12T20:06:07.120Z,47.60
2023-04-12T20:08:36.278Z,47.85
2023-04-12T20:11:04.313Z,47.76
2023-04-12T20:13:32.334Z,47.78
2023-04-12T20:16:01.872Z,47.81
2023-04-12T20:18:30.209Z,47.91
2023-04-12T20:20:59.311Z,47.86
2023-04-12T20:23:27.712Z,47.85
2023-04-12T20:25:56.190Z,48.25
2023-04-12T20:28:24.288Z,48.13
2023-04-12T20:30:51.879Z,48.17
2023-04-12T20:33:21.484Z,48.06
2023-04-12T20:35:50.977Z,48.04
2023-04-12T20:38:19.140Z,48.11
2023-04-12T20:40:47.433Z,48.04
2023-04-12T20:43:16.002Z,47.88
2023-04-12T20:45:43.743Z,48.07
2023-04-12T20:48:11.846Z,48.29
2023-04-12T20:50:40.020Z,47.91
2023-04-12T20:53:09.659Z,48.22
2023-04-12T20:55:37.135Z,48.17
2023-04-12T20:58:06.382Z,48.27
2023-04-12T21:00:35.075Z,48.10
2023-04-12T21:03:03.314Z,48.33
2023-04-12T21:05:34.076Z,48.25
2023-04-12T21:08:01.193Z,48.49
2023-04-12T21:10:28.812Z,48.25
2023-04-12T21:12:55.888Z,48.42
2023-04-12T21:15:23.125Z,48.33
2023-04-12T21:17:52.833Z,48.41
2023-04-12T21:20:20.284Z,48.47
2023-04-12T21:22:48.230Z,48.24
2023-04-12T21:25:16.984Z,48.19
2023-04-12T21:27:45.657Z,48.21
2023-04-12T21:30:13.260Z,48.22
2023-04-12T21:32:41.530Z,48.51
2023-04-12T21:35:09.091Z,48.33
2023-04-12T21:37:37.364Z,48.20
2023-04-12T21:40:09.612Z,48.23
2023-04-12T21:42:37.445Z,48.09
2023-04-12T21:45:04.855Z,48.30
2023-04-12T21:47:32.651Z,48.47
2023-04-12T21:49:59.672Z,48.25
2023-04-12T21:52:27.073Z,48.43
2023-04-12T21:54:55.089Z,48.20
2023-04-12T21:57:22.071Z,48.05
2023-04-12T21:59:49.214Z,48.45
2023-04-12T22:02:16.360Z,48.18
2023-04-12T22:04:43.913Z,48.26
2023-04-12T22:07:13.165Z,48.29
2023-04-12T22:09:41.674Z,48.16
2023-04-12T22:12:08.917Z,48.11
2023-04-12T22:14:36.906Z,48.27
2023-04-12T22:17:04.471Z,48.00
2023-04-12T22:19:31.717Z,48.11
2023-04-12T22:21:58.702Z,48.26
2023-04-12T22:24:26.660Z,48.33
2023-04-12T22:26:57.738Z,47.96
2023-04-12T22:29:25.668Z,48.19
2023-04-12T22:31:53.083Z,47.98
2023-04-12T22:34:20.049Z,47.89
2023-04-12T22:36:51.971Z,48.26
2023-04-12T22:39:19.328Z,48.01
2023-04-12T22:41:49.812Z,47.91
2023-04-12T22:44:17.744Z,48.00
2023-04-12T22:46:48.634Z,47.85
2023-04-12T22:49:17.224Z,48.02
2023-04-12T22:51:44.769Z,47.93
2023-04-12T22:54:12.377Z,47.96
2023-04-12T22:56:45.559Z,48.02
2023-04-12T22:59:14.596Z,47.88
2023-04-12T23:01:42.208Z,48.10
2023-04-12T23:04:11.793Z,48.10
2023-04-12T23:06:40.455Z,48.20
2023-04-12T23:09:07.762Z,47.90
2023-04-12T23:11:35.380Z,47.87
2023-04-12T23:14:02.963Z,48.05
2023-04-12T23:16:30.193Z,48.01
2023-04-12T23:18:57.949Z,47.80
2023-04-12T23:21:24.849Z,48.10
2023-04-12T23:23:52.935Z,47.80
2023-04-12T23:26:20.232Z,48.14
2023-04-12T23:28:47.800Z,47.71
2023-04-12T23:31:15.464Z,47.99
2023-04-12T23:33:43.501Z,47.93
2023-04-12T23:36:11.174Z,48.19
2023-04-12T23:38:39.113Z,48.20
2023-04-12T23:41:07.276Z,48.28
2023-04-12T23:43:34.990Z,48.17
2023-04-12T23:46:03.441Z,48.40
2023-04-12T23:48:31.922Z,48.49
2023-04-12T23:50:59.010Z,48.28
2023-04-12T23:53:26.274Z,48.23
2023-04-12T23:55:53.777Z,48.08
2023-04-12T23:58:21.350Z,48.43
